createdAt,value
2023-02-11T00:01:25.170Z,43.30
2023-02-11T00:03:51.975Z,44.30
2023-02-11T00:06:19.639Z,47.45
2023-02-11T00:08:46.403Z,37.80
2023-02-11T00:11:15.196Z,44.60
2023-02-11T00:13:43.344Z,37.17
2023-02-11T00:16:12.453Z,38.15
2023-02-11T00:18:39.322Z,41.25
2023-02-11T00:21:15.073Z,47.47
2023-02-11T00:23:41.855Z,40.53
2023-02-11T00:26:16.689Z,41.60
2023-02-11T00:28:45.657Z,36.85
2023-02-11T00:31:15.326Z,43.30
2023-02-11T00:33:43.081Z,44.08
2023-02-11T00:36:30.575Z,38.28
2023-02-11T00:38:58.257Z,41.90
2023-02-11T00:41:26.002Z,39.83
2023-02-11T00:43:52.953Z,45.20
2023-02-11T00:46:20.842Z,42.80
2023-02-11T00:48:48.057Z,38.45
2023-02-11T00:51:14.719Z,42.00
2023-02-11T00:53:41.543Z,41.20
2023-02-11T00:56:08.105Z,43.65
2023-02-11T00:58:35.587Z,42.88
2023-02-11T01:01:02.481Z,41.67
2023-02-11T01:03:29.271Z,36.53
2023-02-11T01:05:56.055Z,32.25
2023-02-11T01:08:22.889Z,34.95
2023-02-11T01:11:01.683Z,36.72
2023-02-11T01:13:30.298Z,37.50
2023-02-11T01:15:56.961Z,36.33
2023-02-11T01:18:24.862Z,30.95
2023-02-11T01:20:53.082Z,33.20
2023-02-11T01:23:20.573Z,31.25
2023-02-11T01:25:48.534Z,31.17
2023-02-11T01:28:27.410Z,33.60
2023-02-11T01:30:54.403Z,32.67
2023-02-11T01:33:21.853Z,28.27
2023-02-11T01:35:49.004Z,29.95
2023-02-11T01:38:20.000Z,34.33
2023-02-11T01:43:54.594Z,31.45
2023-02-11T01:46:41.785Z,36.20
2023-02-11T01:49:36.432Z,37.45
2023-02-11T01:52:32.027Z,39.20
2023-02-11T01:55:37.323Z,38.83
2023-02-11T01:58:05.072Z,41.08
2023-02-11T02:00:38.323Z,41.63
2023-02-11T02:03:09.769Z,36.22
2023-02-11T02:06:04.106Z,38.72
2023-02-11T02:08:43.020Z,37.50
2023-02-11T02:11:10.611Z,37.58
2023-02-11T02:13:37.508Z,38.13
2023-02-11T02:16:12.398Z,38.08
2023-02-11T02:19:47.790Z,40.05
2023-02-11T02:22:49.207Z,36.13
2023-02-11T02:25:35.407Z,35.90
2023-02-11T02:28:35.753Z,43.05
2023-02-11T02:31:30.887Z,41.08
2023-02-11T02:34:06.839Z,38.85
2023-02-11T02:36:51.795Z,35.15
2023-02-11T02:39:23.861Z,38.33
2023-02-11T02:41:53.275Z,38.65
2023-02-11T02:44:20.914Z,36.97
2023-02-11T02:46:47.517Z,37.05
2023-02-11T02:49:15.991Z,39.33
2023-02-11T02:52:04.684Z,40.83
2023-02-11T02:54:59.856Z,38.17
2023-02-11T02:57:40.760Z,38.30
2023-02-11T03:00:38.240Z,43.28
2023-02-11T03:03:31.131Z,36.70
2023-02-11T03:06:12.972Z,38.20
2023-02-11T03:08:49.374Z,37.22
2023-02-11T03:11:18.469Z,40.63
2023-02-11T03:13:47.556Z,37.20
2023-02-11T03:16:19.467Z,39.40
2023-02-11T03:19:11.488Z,40.30
2023-02-11T03:21:40.656Z,36.90
2023-02-11T03:24:13.564Z,33.88
2023-02-11T03:26:53.256Z,37.85
2023-02-11T03:29:35.571Z,34.30
2023-02-11T03:32:08.799Z,36.95
2023-02-11T03:34:47.566Z,37.70
2023-02-11T03:37:25.405Z,39.40
2023-02-11T03:39:57.443Z,39.28
2023-02-11T03:42:30.164Z,38.67
2023-02-11T03:45:04.467Z,38.92
2023-02-11T03:47:34.141Z,38.50
2023-02-11T03:50:04.533Z,42.30
2023-02-11T03:52:32.621Z,40.63
2023-02-11T03:55:01.681Z,43.33
2023-02-11T03:57:28.749Z,41.88
2023-02-11T03:59:58.120Z,38.55
2023-02-11T04:02:29.404Z,39.90
2023-02-11T04:04:56.662Z,37.50
2023-02-11T04:07:23.736Z,38.13
2023-02-11T04:09:50.493Z,38.80
2023-02-11T04:12:16.986Z,39.15
2023-02-11T04:14:43.589Z,40.53
2023-02-11T04:17:10.122Z,43.42
2023-02-11T04:19:37.015Z,40.42
2023-02-11T04:22:03.651Z,43.38
2023-02-11T04:24:30.818Z,40.50
2023-02-11T04:26:57.329Z,38.38
2023-02-11T04:29:23.879Z,43.83
2023-02-11T04:31:50.864Z,37.55
2023-02-11T04:34:17.551Z,41.97
2023-02-11T04:36:44.083Z,39.75
2023-02-11T04:39:14.046Z,45.88
2023-02-11T04:41:40.758Z,41.55
2023-02-11T04:44:07.587Z,42.47
2023-02-11T04:46:34.713Z,38.25
2023-02-11T04:49:01.128Z,41.13
2023-02-11T04:51:28.549Z,38.33
2023-02-11T04:53:55.135Z,38.20
2023-02-11T04:56:22.388Z,38.50
2023-02-11T04:58:48.813Z,40.38
2023-02-11T05:01:16.455Z,41.47
2023-02-11T05:03:43.423Z,44.05
2023-02-11T05:06:11.033Z,40.72
2023-02-11T05:08:38.281Z,45.15
2023-02-11T05:11:05.136Z,39.85
2023-02-11T05:13:32.511Z,41.47
2023-02-11T05:15:59.507Z,48.42
2023-02-11T05:18:26.246Z,45.97
2023-02-11T05:20:52.690Z,41.97
2023-02-11T05:23:19.459Z,41.78
2023-02-11T05:25:45.982Z,44.58
2023-02-11T05:28:12.705Z,46.95
2023-02-11T05:30:39.316Z,39.83
2023-02-11T05:33:05.827Z,41.67
2023-02-11T05:35:32.394Z,45.45
2023-02-11T05:37:59.474Z,45.17
2023-02-11T05:40:26.122Z,46.97
2023-02-11T05:42:52.628Z,42.65
2023-02-11T05:45:19.515Z,41.45
2023-02-11T05:47:46.418Z,47.13
2023-02-11T05:50:12.905Z,42.08
2023-02-11T05:52:39.800Z,43.25
2023-02-11T05:55:06.616Z,40.35
2023-02-11T05:57:34.184Z,45.92
2023-02-11T06:00:00.917Z,42.00
2023-02-11T06:02:27.869Z,41.75
2023-02-11T06:04:54.313Z,43.75
2023-02-11T06:07:21.246Z,41.03
2023-02-11T06:09:48.162Z,43.08
2023-02-11T06:12:14.643Z,38.85
2023-02-11T06:14:42.191Z,47.50
2023-02-11T06:17:08.968Z,43.80
2023-02-11T06:19:36.125Z,39.25
2023-02-11T06:22:03.844Z,40.03
2023-02-11T06:24:54.657Z,43.75
2023-02-11T06:27:18.615Z,39.83
2023-02-11T06:29:46.164Z,36.88
2023-02-11T06:32:33.599Z,45.35
2023-02-11T06:35:00.416Z,40.17
2023-02-11T06:37:27.291Z,39.08
2023-02-11T06:39:53.707Z,42.88
2023-02-11T06:42:20.609Z,37.03
2023-02-11T06:44:47.759Z,33.75
2023-02-11T06:47:14.217Z,43.97
2023-02-11T06:49:40.715Z,42.08
2023-02-11T06:52:07.433Z,40.47
2023-02-11T06:54:34.173Z,49.60
2023-02-11T06:57:01.144Z,41.80
2023-02-11T06:59:27.769Z,40.28
2023-02-11T07:01:54.277Z,36.50
2023-02-11T07:04:20.886Z,41.08
2023-02-11T07:06:47.422Z,41.25
2023-02-11T07:09:14.395Z,37.53
2023-02-11T07:11:40.839Z,41.50
2023-02-11T07:14:08.711Z,41.65
2023-02-11T07:16:35.750Z,36.42
2023-02-11T07:19:02.339Z,37.15
2023-02-11T07:21:29.025Z,42.33
2023-02-11T07:23:55.538Z,41.65
2023-02-11T07:26:23.690Z,38.33
2023-02-11T07:28:51.571Z,36.03
2023-02-11T07:31:21.401Z,40.05
2023-02-11T07:33:48.396Z,40.67
2023-02-11T07:36:16.386Z,36.08
2023-02-11T07:38:44.107Z,34.85
2023-02-11T07:41:16.083Z,43.63
2023-02-11T07:43:42.775Z,40.08
2023-02-11T07:46:12.924Z,41.92
2023-02-11T07:48:40.070Z,38.67
2023-02-11T07:51:21.991Z,39.13
2023-02-11T07:53:49.084Z,42.88
2023-02-11T07:56:16.875Z,38.85
2023-02-11T07:58:44.041Z,38.25
2023-02-11T08:01:13.268Z,40.08
2023-02-11T08:03:41.871Z,37.97
2023-02-11T08:06:14.318Z,37.65
2023-02-11T08:08:41.403Z,42.28
2023-02-11T08:11:15.217Z,40.95
2023-02-11T08:13:42.081Z,37.17
2023-02-11T08:16:10.279Z,42.08
2023-02-11T08:18:37.092Z,42.90
2023-02-11T08:21:09.079Z,38.75
2023-02-11T08:23:37.163Z,41.83
2023-02-11T08:26:04.912Z,44.15
2023-02-11T08:28:31.830Z,42.35
2023-02-11T08:30:58.551Z,39.80
2023-02-11T08:33:25.125Z,37.83
2023-02-11T08:35:51.684Z,36.75
2023-02-11T08:38:18.330Z,38.72
2023-02-11T08:40:44.892Z,39.65
2023-02-11T08:43:11.375Z,45.65
2023-02-11T08:45:37.913Z,41.92
2023-02-11T08:48:04.459Z,37.83
2023-02-11T08:50:32.151Z,43.10
2023-02-11T08:52:59.047Z,40.40
2023-02-11T08:55:25.673Z,42.80
2023-02-11T08:57:52.083Z,39.95
2023-02-11T09:00:19.224Z,39.22
2023-02-11T09:02:45.735Z,45.72
2023-02-11T09:05:12.361Z,35.35
2023-02-11T09:07:39.161Z,37.75
2023-02-11T09:10:06.442Z,39.35
2023-02-11T09:12:33.037Z,34.22
2023-02-11T09:14:59.586Z,38.42
2023-02-11T09:17:26.341Z,34.42
2023-02-11T09:19:53.252Z,32.50
2023-02-11T09:22:19.699Z,37.35
2023-02-11T09:24:46.155Z,35.20
2023-02-11T09:27:12.916Z,36.38
2023-02-11T09:29:39.451Z,41.88
2023-02-11T09:32:08.657Z,39.40
2023-02-11T09:34:36.592Z,33.60
2023-02-11T09:37:03.124Z,34.88
2023-02-11T09:39:29.833Z,36.35
2023-02-11T09:41:59.154Z,39.78
2023-02-11T09:44:28.763Z,34.92
2023-02-11T09:46:59.717Z,38.33
2023-02-11T09:49:45.162Z,34.28
2023-02-11T09:52:26.650Z,37.70
2023-02-11T09:55:11.146Z,35.83
2023-02-11T09:57:37.581Z,37.90
2023-02-11T10:00:37.027Z,40.70
2023-02-11T10:03:38.619Z,38.72
2023-02-11T10:06:22.612Z,35.15
2023-02-11T10:09:07.924Z,39.20
2023-02-11T10:11:43.443Z,36.75
2023-02-11T10:14:15.943Z,38.17
2023-02-11T10:16:59.952Z,36.53
2023-02-11T10:19:44.762Z,40.97
2023-02-11T10:22:24.463Z,43.45
2023-02-11T10:24:54.774Z,32.43
2023-02-11T10:27:31.069Z,35.67
2023-02-11T10:30:16.058Z,37.88
2023-02-11T10:32:49.456Z,38.22
2023-02-11T10:35:18.849Z,42.45
2023-02-11T10:37:45.695Z,35.67
2023-02-11T10:40:18.255Z,35.22
2023-02-11T10:42:49.753Z,37.80
2023-02-11T10:45:29.323Z,35.88
2023-02-11T10:47:56.229Z,37.03
2023-02-11T10:50:29.505Z,39.08
2023-02-11T10:53:19.659Z,35.88
2023-02-11T10:55:52.458Z,35.92
2023-02-11T10:58:31.705Z,38.22
2023-02-11T11:01:00.315Z,38.92
2023-02-11T11:03:32.874Z,40.53
2023-02-11T11:06:02.153Z,35.58
2023-02-11T11:08:44.922Z,34.20
2023-02-11T11:11:23.391Z,35.30
2023-02-11T11:13:52.796Z,39.60
2023-02-11T11:16:29.407Z,36.17
2023-02-11T11:19:08.288Z,44.63
2023-02-11T11:21:42.413Z,43.00
2023-02-11T11:24:22.622Z,39.92
2023-02-11T11:26:59.594Z,39.80
2023-02-11T11:29:37.234Z,38.30
2023-02-11T11:32:20.686Z,40.67
2023-02-11T11:34:56.555Z,39.47
2023-02-11T11:37:26.686Z,41.92
2023-02-11T11:40:02.302Z,31.55
2023-02-11T11:42:30.077Z,38.80
2023-02-11T11:44:59.656Z,34.50
2023-02-11T11:47:39.635Z,37.83
2023-02-11T11:50:43.029Z,36.05
2023-02-11T11:53:37.961Z,34.78
2023-02-11T11:56:07.338Z,36.80
2023-02-11T11:58:34.731Z,35.55
2023-02-11T12:01:28.689Z,35.85
2023-02-11T12:04:12.994Z,32.95
2023-02-11T12:06:42.564Z,37.17
2023-02-11T12:09:25.232Z,40.93
2023-02-11T12:12:10.213Z,37.22
2023-02-11T12:14:42.872Z,36.33
2023-02-11T12:17:28.311Z,32.95
2023-02-11T12:20:19.112Z,34.67
2023-02-11T12:23:00.105Z,33.00
2023-02-11T12:25:48.324Z,35.83
2023-02-11T12:28:34.938Z,33.53
2023-02-11T12:31:52.849Z,40.10
2023-02-11T12:34:45.531Z,32.58
2023-02-11T12:37:25.505Z,36.30
2023-02-11T12:40:06.911Z,34.70
2023-02-11T12:43:04.036Z,36.65
2023-02-11T12:45:45.828Z,33.08
2023-02-11T12:48:28.054Z,33.92
2023-02-11T12:51:01.721Z,34.90
2023-02-11T12:53:46.286Z,34.58
2023-02-11T12:56:20.910Z,34.30
2023-02-11T12:58:50.370Z,34.03
2023-02-11T13:01:23.318Z,31.45
2023-02-11T13:04:09.314Z,33.83
2023-02-11T13:06:45.240Z,33.67
2023-02-11T13:09:36.861Z,34.78
2023-02-11T13:12:26.076Z,40.65
2023-02-11T13:14:56.778Z,33.97
2023-02-11T13:17:35.074Z,36.20
2023-02-11T13:20:17.854Z,37.70
2023-02-11T13:22:50.751Z,34.75
2023-02-11T13:25:40.503Z,36.78
2023-02-11T13:28:29.557Z,35.37
2023-02-11T13:31:03.020Z,35.40
2023-02-11T13:33:43.255Z,39.13
2023-02-11T13:36:09.869Z,37.13
2023-02-11T13:38:37.527Z,38.08
2023-02-11T13:41:15.220Z,34.97
2023-02-11T13:43:42.207Z,40.33
2023-02-11T13:46:13.073Z,37.45
2023-02-11T13:48:48.058Z,37.15
2023-02-11T13:51:18.779Z,33.50
2023-02-11T13:53:58.307Z,34.88
2023-02-11T13:56:31.122Z,35.28
2023-02-11T13:59:01.869Z,35.53
2023-02-11T14:01:43.248Z,37.03
2023-02-11T14:04:41.083Z,36.47
2023-02-11T14:07:45.965Z,33.00
2023-02-11T14:10:43.806Z,35.22
2023-02-11T14:13:26.728Z,36.97
2023-02-11T14:16:13.488Z,36.60
2023-02-11T14:18:49.119Z,32.38
2023-02-11T14:21:29.005Z,37.03
2023-02-11T14:24:01.480Z,36.30
2023-02-11T14:26:51.323Z,36.50
2023-02-11T14:29:29.360Z,34.70
2023-02-11T14:32:05.933Z,39.70
2023-02-11T14:35:12.136Z,38.53
2023-02-11T14:37:50.969Z,31.92
2023-02-11T14:40:31.812Z,36.60
2023-02-11T14:43:14.975Z,39.95
2023-02-11T14:45:44.588Z,38.88
2023-02-11T14:48:20.067Z,38.55
2023-02-11T14:50:51.753Z,40.47
2023-02-11T14:53:21.899Z,40.17
2023-02-11T14:55:52.279Z,38.08
2023-02-11T14:58:20.983Z,39.97
2023-02-11T15:01:23.609Z,44.15
2023-02-11T15:03:50.231Z,37.83
2023-02-11T15:06:23.215Z,37.47
2023-02-11T15:08:58.272Z,42.30
2023-02-11T15:11:26.177Z,38.05
2023-02-11T15:13:55.352Z,37.15
2023-02-11T15:16:27.653Z,36.75
2023-02-11T15:18:59.497Z,33.65
2023-02-11T15:21:29.916Z,33.28
2023-02-11T15:26:24.659Z,38.03
2023-02-11T15:28:54.160Z,36.50
2023-02-11T15:31:25.776Z,35.58
2023-02-11T15:33:53.676Z,28.92
2023-02-11T15:36:28.388Z,33.50
2023-02-11T15:39:43.284Z,33.72
2023-02-11T15:42:27.578Z,32.50
2023-02-11T15:45:15.840Z,35.88
2023-02-11T15:47:52.511Z,33.42
2023-02-11T15:50:25.007Z,34.65
2023-02-11T15:52:52.810Z,38.05
2023-02-11T15:55:19.921Z,35.20
2023-02-11T15:57:52.125Z,40.08
2023-02-11T16:00:21.496Z,35.83
2023-02-11T16:02:50.853Z,36.38
2023-02-11T16:05:28.565Z,39.00
2023-02-11T16:07:56.869Z,36.00
2023-02-11T16:10:29.462Z,35.60
2023-02-11T16:13:08.477Z,42.30
2023-02-11T16:15:34.954Z,33.35
2023-02-11T16:18:04.348Z,37.28
2023-02-11T16:20:30.927Z,38.40
2023-02-11T16:22:57.682Z,37.65
2023-02-11T16:25:24.634Z,36.80
2023-02-11T16:27:53.466Z,36.40
2023-02-11T16:30:23.356Z,40.90
2023-02-11T16:32:49.838Z,35.17
2023-02-11T16:35:16.339Z,36.65
2023-02-11T16:37:42.887Z,30.98
2023-02-11T16:40:11.770Z,51.30
2023-02-11T16:42:38.469Z,35.13
2023-02-11T16:45:05.320Z,36.95
2023-02-11T16:47:33.710Z,29.77
2023-02-11T16:50:01.816Z,35.65
2023-02-11T16:52:32.147Z,35.80
2023-02-11T16:54:59.622Z,35.90
2023-02-11T16:57:29.532Z,37.00
2023-02-11T16:59:57.298Z,39.97
2023-02-11T17:02:28.879Z,41.63
2023-02-11T17:04:58.360Z,35.95
2023-02-11T17:07:25.056Z,41.85
2023-02-11T17:09:54.562Z,39.28
2023-02-11T17:12:21.463Z,46.42
2023-02-11T17:14:48.055Z,39.70
2023-02-11T17:17:14.619Z,56.42
2023-02-11T17:19:41.366Z,59.17
2023-02-11T17:22:08.203Z,61.20
2023-02-11T17:24:34.696Z,50.72
2023-02-11T17:27:01.214Z,47.40
2023-02-11T17:29:27.888Z,36.50
2023-02-11T17:31:54.590Z,40.92
2023-02-11T17:34:22.080Z,50.88
2023-02-11T17:36:49.480Z,41.17
2023-02-11T17:39:16.292Z,39.40
2023-02-11T17:41:42.726Z,37.40
2023-02-11T17:44:10.869Z,40.10
2023-02-11T17:46:37.385Z,35.13
2023-02-11T17:49:04.569Z,39.55
2023-02-11T17:51:36.509Z,39.33
2023-02-11T17:54:06.237Z,32.20
2023-02-11T17:56:34.496Z,41.05
2023-02-11T17:59:02.442Z,37.75
2023-02-11T18:01:29.617Z,36.90
2023-02-11T18:03:56.125Z,36.70
2023-02-11T18:06:23.132Z,35.72
2023-02-11T18:08:49.752Z,36.80
2023-02-11T18:11:17.012Z,36.75
2023-02-11T18:13:45.207Z,36.65
2023-02-11T18:16:15.753Z,34.55
2023-02-11T18:18:43.372Z,43.15
2023-02-11T18:21:15.369Z,39.00
2023-02-11T18:23:42.161Z,39.38
2023-02-11T18:26:10.926Z,36.30
2023-02-11T18:28:37.920Z,43.50
2023-02-11T18:31:05.572Z,41.53
2023-02-11T18:33:32.372Z,46.67
2023-02-11T18:35:58.995Z,46.15
2023-02-11T18:38:25.801Z,41.13
2023-02-11T18:40:52.869Z,44.83
2023-02-11T18:43:20.273Z,39.25
2023-02-11T18:45:48.588Z,46.22
2023-02-11T18:48:16.236Z,43.13
2023-02-11T18:50:44.535Z,43.42
2023-02-11T18:53:15.489Z,42.55
2023-02-11T18:55:44.137Z,42.58
2023-02-11T18:58:10.860Z,48.25
2023-02-11T19:00:40.018Z,44.78
2023-02-11T19:03:06.970Z,41.03
2023-02-11T19:05:41.179Z,43.15
2023-02-11T19:08:07.784Z,43.63
2023-02-11T19:10:35.028Z,42.58
2023-02-11T19:13:01.563Z,41.47
2023-02-11T19:15:28.714Z,44.00
2023-02-11T19:17:55.166Z,48.30
2023-02-11T19:20:21.683Z,53.35
2023-02-11T19:22:48.247Z,54.63
2023-02-11T19:25:14.982Z,48.05
2023-02-11T19:27:42.056Z,50.03
2023-02-11T19:30:10.399Z,47.00
2023-02-11T19:32:37.265Z,52.05
2023-02-11T19:35:04.260Z,46.67
2023-02-11T19:37:30.772Z,44.72
2023-02-11T19:39:57.628Z,47.20
2023-02-11T19:42:27.612Z,45.92
2023-02-11T19:44:54.373Z,46.40
2023-02-11T19:47:29.974Z,52.67
2023-02-11T19:50:04.219Z,47.58
2023-02-11T19:52:38.256Z,48.72
2023-02-11T19:55:05.442Z,49.83
2023-02-11T19:57:32.460Z,48.90
2023-02-11T19:59:59.213Z,45.67
2023-02-11T20:02:26.178Z,43.45
2023-02-11T20:04:52.843Z,46.38
2023-02-11T20:07:19.383Z,43.10
2023-02-11T20:09:45.863Z,48.33
2023-02-11T20:12:12.678Z,53.00
2023-02-11T20:14:39.249Z,42.05
2023-02-11T20:17:06.151Z,48.60
2023-02-11T20:19:32.613Z,47.00
2023-02-11T20:21:59.508Z,51.13
2023-02-11T20:24:26.099Z,43.78
2023-02-11T20:26:55.776Z,47.67
2023-02-11T20:29:23.611Z,48.17
2023-02-11T20:31:50.885Z,42.40
2023-02-11T20:34:18.353Z,43.17
2023-02-11T20:36:51.620Z,45.63
2023-02-11T20:39:21.590Z,47.65
2023-02-11T20:41:48.735Z,42.83
2023-02-11T20:44:15.329Z,44.88
2023-02-11T20:46:48.085Z,41.00
2023-02-11T20:49:17.034Z,48.05
2023-02-11T20:51:43.572Z,45.30
2023-02-11T20:54:18.949Z,48.60
2023-02-11T20:56:48.126Z,41.67
2023-02-11T20:59:16.427Z,49.92
2023-02-11T21:01:45.580Z,42.88
2023-02-11T21:04:15.247Z,38.95
2023-02-11T21:06:47.965Z,46.43
2023-02-11T21:09:17.367Z,41.08
2023-02-11T21:11:44.380Z,41.80
2023-02-11T21:14:11.987Z,40.80
2023-02-11T21:16:39.566Z,42.60
2023-02-11T21:19:06.889Z,48.95
2023-02-11T21:21:36.893Z,42.47
2023-02-11T21:24:04.155Z,43.28
2023-02-11T21:26:33.005Z,41.20
2023-02-11T21:28:59.458Z,42.80
2023-02-11T21:31:32.205Z,45.55
2023-02-11T21:34:02.330Z,43.60
2023-02-11T21:36:30.343Z,41.83
2023-02-11T21:38:57.360Z,44.72
2023-02-11T21:41:24.793Z,40.63
2023-02-11T21:43:51.844Z,41.45
2023-02-11T21:46:19.869Z,42.40
2023-02-11T21:48:46.989Z,47.60
2023-02-11T21:51:17.085Z,44.10
2023-02-11T21:53:43.854Z,46.60
2023-02-11T21:56:13.429Z,41.38
2023-02-11T21:58:40.179Z,40.80
2023-02-11T22:01:19.623Z,41.53
2023-02-11T22:03:46.518Z,48.38
2023-02-11T22:06:16.715Z,46.13
2023-02-11T22:08:44.142Z,45.35
2023-02-11T22:11:13.344Z,52.72
2023-02-11T22:13:40.320Z,51.33
2023-02-11T22:16:11.168Z,46.15
2023-02-11T22:18:38.995Z,46.47
2023-02-11T22:21:08.557Z,44.42
2023-02-11T22:23:35.792Z,43.57
2023-02-11T22:26:11.804Z,43.95
2023-02-11T22:28:40.485Z,43.13
2023-02-11T22:31:12.292Z,40.97
2023-02-11T22:33:39.206Z,44.20
2023-02-11T22:36:09.397Z,44.05
2023-02-11T22:38:35.961Z,45.35
2023-02-11T22:41:07.766Z,46.65
2023-02-11T22:43:34.560Z,42.25
2023-02-11T22:46:06.610Z,45.15
2023-02-11T22:48:35.081Z,38.33
2023-02-11T22:51:10.988Z,37.97
2023-02-11T22:53:37.873Z,41.63
2023-02-11T22:56:15.015Z,43.45
2023-02-11T22:58:42.297Z,39.55
2023-02-11T23:01:08.744Z,37.17
2023-02-11T23:03:35.665Z,38.03
2023-02-11T23:06:02.971Z,37.70
2023-02-11T23:08:31.347Z,38.30
2023-02-11T23:11:10.502Z,44.47
2023-02-11T23:13:39.370Z,40.72
2023-02-11T23:16:09.057Z,37.40
2023-02-11T23:18:38.196Z,35.43
2023-02-11T23:21:12.463Z,37.05
2023-02-11T23:23:39.554Z,38.92
2023-02-11T23:26:09.883Z,37.85
2023-02-11T23:28:36.577Z,39.90
2023-02-11T23:31:14.011Z,41.97
2023-02-11T23:33:40.538Z,39.45
2023-02-11T23:36:07.727Z,40.30
2023-02-11T23:38:34.440Z,38.28
2023-02-11T23:41:00.932Z,39.05
2023-02-11T23:43:27.612Z,38.65
2023-02-11T23:45:54.503Z,36.83
2023-02-11T23:48:21.145Z,43.67
2023-02-11T23:50:48.283Z,35.88
2023-02-11T23:53:14.785Z,39.75
2023-02-11T23:55:43.138Z,42.72
2023-02-11T23:58:10.528Z,44.35
